Time;durP1;ratioP1;P1;durP2;ratioP2;P2;SDS_P1;SDS_P2;PMS_P1;PMS_P2;Temp;Humidity;BMP_temperature;BMP_pressure;BME280_temperature;BME280_humidity;BME280_pressure;Samples;Min_cycle;Max_cycle;Signal;HPM_P1;HPM_P2
2023/12/10 00:01:26;;;;;;;8.37;1.67;;;;;;;;;;4996457;28;20284;-70
2023/12/10 00:03:55;;;;;;;6.33;1.93;;;;;;;;;;4996011;28;20280;-70
2023/12/10 00:06:23;;;;;;;10.17;1.67;;;;;;;;;;4996678;28;20205;-70
2023/12/10 00:08:52;;;;;;;5.40;1.60;;;;;;;;;;4996900;28;20255;-69
2023/12/10 00:11:22;;;;;;;3.17;1.60;;;;;;;;;;4996681;28;20238;-70
2023/12/10 00:13:50;;;;;;;3.43;1.27;;;;;;;;;;5000501;28;20237;-70
2023/12/10 00:16:18;;;;;;;8.40;1.67;;;;;;;;;;5000388;28;20211;-70
2023/12/10 00:18:47;;;;;;;4.27;1.67;;;;;;;;;;4999763;28;20241;-70
2023/12/10 00:21:15;;;;;;;9.23;1.77;;;;;;;;;;5000153;28;20201;-70
2023/12/10 00:23:43;;;;;;;8.63;2.40;;;;;;;;;;4999120;28;20263;-70
2023/12/10 00:26:13;;;;;;;7.40;2.23;;;;;;;;;;4999798;28;20225;-70
2023/12/10 00:28:43;;;;;;;7.97;1.80;;;;;;;;;;5000080;28;20577;-70
2023/12/10 00:31:12;;;;;;;7.03;1.87;;;;;;;;;;5000001;28;20676;-70
2023/12/10 00:33:41;;;;;;;5.27;1.30;;;;;;;;;;4991832;28;20217;-70
2023/12/10 00:36:10;;;;;;;10.07;1.83;;;;;;;;;;5000494;28;20220;-70
2023/12/10 00:38:38;;;;;;;3.67;1.47;;;;;;;;;;5000033;28;20224;-70
2023/12/10 00:41:07;;;;;;;4.97;1.80;;;;;;;;;;5000262;28;20209;-70
2023/12/10 00:43:35;;;;;;;4.87;1.90;;;;;;;;;;4999667;28;20591;-71
2023/12/10 00:46:05;;;;;;;4.60;1.90;;;;;;;;;;5000058;28;20236;-69
2023/12/10 00:51:55;;;;;;;3.87;1.80;;;;;;;;;;4995569;28;20201;-69
2023/12/10 00:54:24;;;;;;;6.03;1.83;;;;;;;;;;4998188;28;20753;-69
2023/12/10 00:56:52;;;;;;;4.03;1.67;;;;;;;;;;4997251;28;20207;-69
2023/12/10 00:59:20;;;;;;;4.03;1.67;;;;;;;;;;4999618;28;20239;-69
2023/12/10 01:01:50;;;;;;;4.37;1.83;;;;;;;;;;4999030;28;20236;-70
2023/12/10 01:04:18;;;;;;;4.73;1.70;;;;;;;;;;4999823;28;20224;-69
2023/12/10 01:06:47;;;;;;;5.17;2.10;;;;;;;;;;4999605;28;20567;-71
2023/12/10 01:09:15;;;;;;;6.77;1.73;;;;;;;;;;4999641;28;20204;-71
2023/12/10 01:11:44;;;;;;;5.67;1.70;;;;;;;;;;4995731;28;20205;-69
2023/12/10 01:14:12;;;;;;;6.23;1.43;;;;;;;;;;4999610;28;20236;-69
2023/12/10 01:16:41;;;;;;;6.23;1.80;;;;;;;;;;4999202;28;20292;-69
2023/12/10 01:19:11;;;;;;;5.90;1.70;;;;;;;;;;4999651;28;20284;-70
2023/12/10 01:21:39;;;;;;;3.13;1.77;;;;;;;;;;4999688;28;20232;-70
2023/12/10 01:24:15;;;;;;;6.83;2.07;;;;;;;;;;4999120;28;20739;-70
2023/12/10 01:26:43;;;;;;;8.40;2.47;;;;;;;;;;4997328;28;20193;-70
2023/12/10 01:29:11;;;;;;;5.83;2.03;;;;;;;;;;4996844;28;20555;-69
2023/12/10 01:31:40;;;;;;;4.77;1.80;;;;;;;;;;4999076;28;20268;-70
2023/12/10 01:34:08;;;;;;;9.17;2.27;;;;;;;;;;4999167;28;20209;-70
2023/12/10 01:36:40;;;;;;;12.27;2.17;;;;;;;;;;4998607;28;20201;-69
2023/12/10 01:39:08;;;;;;;5.43;1.80;;;;;;;;;;4998157;28;20228;-70
2023/12/10 01:41:36;;;;;;;12.60;2.17;;;;;;;;;;4999158;28;20212;-69
2023/12/10 01:44:05;;;;;;;8.83;1.93;;;;;;;;;;4999267;28;20291;-70
2023/12/10 01:46:33;;;;;;;8.73;1.87;;;;;;;;;;4998416;28;20308;-70
2023/12/10 01:49:02;;;;;;;8.03;2.13;;;;;;;;;;4998774;28;20229;-70
2023/12/10 01:51:30;;;;;;;9.10;2.53;;;;;;;;;;4998919;28;20204;-69
2023/12/10 01:54:00;;;;;;;8.53;2.97;;;;;;;;;;4999094;28;20267;-70
2023/12/10 01:56:29;;;;;;;11.23;2.90;;;;;;;;;;4994246;28;20285;-69
2023/12/10 01:58:58;;;;;;;5.33;3.00;;;;;;;;;;4999105;28;20293;-70
2023/12/10 02:01:27;;;;;;;6.47;2.73;;;;;;;;;;4998460;28;20203;-70
2023/12/10 02:03:56;;;;;;;9.37;2.90;;;;;;;;;;4988829;28;20264;-69
2023/12/10 02:06:26;;;;;;;7.63;2.63;;;;;;;;;;4998496;28;20695;-67
2023/12/10 02:08:55;;;;;;;10.47;3.10;;;;;;;;;;4998563;28;20205;-69
2023/12/10 02:11:25;;;;;;;7.47;2.60;;;;;;;;;;4998513;28;20636;-67
2023/12/10 02:13:55;;;;;;;8.70;2.73;;;;;;;;;;4998419;28;20268;-68
2023/12/10 02:16:23;;;;;;;4.67;2.30;;;;;;;;;;4998021;28;20203;-68
2023/12/10 02:18:52;;;;;;;5.03;2.30;;;;;;;;;;4998059;28;20205;-68
2023/12/10 02:21:20;;;;;;;7.13;2.27;;;;;;;;;;4998294;28;20209;-67
2023/12/10 02:23:52;;;;;;;9.40;2.47;;;;;;;;;;4998672;28;20205;-68
2023/12/10 02:26:22;;;;;;;7.50;2.53;;;;;;;;;;4997692;28;20227;-70
2023/12/10 02:28:50;;;;;;;5.00;1.40;;;;;;;;;;4998622;28;20292;-70
2023/12/10 02:31:19;;;;;;;5.33;2.30;;;;;;;;;;4997968;28;20288;-69
2023/12/10 02:33:47;;;;;;;6.67;2.70;;;;;;;;;;4998231;28;20204;-69
2023/12/10 02:36:16;;;;;;;4.93;1.90;;;;;;;;;;4997238;28;20260;-69
2023/12/10 02:38:45;;;;;;;6.27;2.57;;;;;;;;;;4998007;28;20204;-70
2023/12/10 02:41:13;;;;;;;5.20;1.73;;;;;;;;;;4997685;28;20580;-70
2023/12/10 02:43:43;;;;;;;4.07;2.00;;;;;;;;;;4998422;28;20213;-70
2023/12/10 02:46:12;;;;;;;4.73;1.93;;;;;;;;;;4997269;28;20284;-68
2023/12/10 02:48:40;;;;;;;8.73;2.00;;;;;;;;;;4997794;28;20237;-68
2023/12/10 02:51:09;;;;;;;5.90;1.97;;;;;;;;;;4997871;28;20667;-70
2023/12/10 02:53:37;;;;;;;8.87;3.03;;;;;;;;;;4997897;28;20240;-69
2023/12/10 02:56:05;;;;;;;7.03;2.90;;;;;;;;;;4997383;28;20213;-69
2023/12/10 02:58:35;;;;;;;6.37;1.73;;;;;;;;;;4996504;28;20196;-68
2023/12/10 03:01:04;;;;;;;5.40;1.90;;;;;;;;;;4997386;28;20209;-69
2023/12/10 03:03:33;;;;;;;6.87;2.30;;;;;;;;;;4997811;28;20201;-69
2023/12/10 03:06:01;;;;;;;3.03;2.20;;;;;;;;;;4997401;28;20279;-71
2023/12/10 03:08:29;;;;;;;5.97;1.87;;;;;;;;;;4998130;28;20208;-71
2023/12/10 03:10:58;;;;;;;3.50;1.70;;;;;;;;;;4997773;28;20201;-69
2023/12/10 03:13:26;;;;;;;9.23;2.40;;;;;;;;;;4998011;28;20201;-67
2023/12/10 03:15:54;;;;;;;7.03;2.23;;;;;;;;;;4997213;28;20223;-67
2023/12/10 03:18:25;;;;;;;11.20;1.90;;;;;;;;;;4997396;28;20680;-68
2023/12/10 03:20:54;;;;;;;8.20;2.50;;;;;;;;;;4997755;28;20205;-68
2023/12/10 03:23:22;;;;;;;8.00;2.20;;;;;;;;;;4997659;28;20573;-67
2023/12/10 03:25:51;;;;;;;8.03;2.27;;;;;;;;;;4997050;28;20661;-70
2023/12/10 03:28:19;;;;;;;2.93;2.07;;;;;;;;;;4997761;28;20201;-68
2023/12/10 03:30:48;;;;;;;9.03;2.13;;;;;;;;;;4997139;28;20579;-70
2023/12/10 03:33:16;;;;;;;9.03;2.50;;;;;;;;;;4997587;28;20208;-71
2023/12/10 03:35:46;;;;;;;10.20;3.57;;;;;;;;;;4997040;28;20655;-69
2023/12/10 03:38:14;;;;;;;8.33;3.10;;;;;;;;;;4997635;28;20638;-71
2023/12/10 03:40:42;;;;;;;6.03;2.20;;;;;;;;;;4997178;28;20205;-69
2023/12/10 03:43:11;;;;;;;7.97;2.00;;;;;;;;;;4997567;28;20287;-71
2023/12/10 03:46:07;;;;;;;10.67;2.37;;;;;;;;;;4994561;28;20316;-69
2023/12/10 03:48:41;;;;;;;9.23;2.50;;;;;;;;;;4999671;28;20288;-70
2023/12/10 03:51:14;;;;;;;8.63;2.47;;;;;;;;;;4998925;28;20608;-71
2023/12/10 03:53:42;;;;;;;13.97;3.80;;;;;;;;;;4999491;28;20205;-68
2023/12/10 03:56:11;;;;;;;7.20;2.97;;;;;;;;;;4991790;28;20788;-68
2023/12/10 03:58:39;;;;;;;7.83;2.80;;;;;;;;;;4999137;28;20232;-71
2023/12/10 04:01:08;;;;;;;7.20;1.93;;;;;;;;;;4999851;28;20735;-69
2023/12/10 04:03:36;;;;;;;5.47;2.03;;;;;;;;;;5000646;28;20243;-70
2023/12/10 04:06:05;;;;;;;7.80;2.67;;;;;;;;;;5000791;28;20256;-69
2023/12/10 04:08:35;;;;;;;4.87;1.80;;;;;;;;;;5000619;28;20699;-69
2023/12/10 04:11:03;;;;;;;5.40;2.10;;;;;;;;;;5001046;28;20237;-69
2023/12/10 04:13:31;;;;;;;8.43;2.47;;;;;;;;;;5000174;28;20255;-69
2023/12/10 04:16:00;;;;;;;8.30;2.27;;;;;;;;;;5000610;28;20279;-69
2023/12/10 04:18:29;;;;;;;6.97;2.63;;;;;;;;;;5000850;28;20233;-69
2023/12/10 04:20:57;;;;;;;6.57;3.20;;;;;;;;;;5000711;28;20283;-68
2023/12/10 04:23:28;;;;;;;9.70;2.73;;;;;;;;;;4998771;28;20223;-69
2023/12/10 04:25:57;;;;;;;7.97;3.07;;;;;;;;;;5000105;28;20767;-68
2023/12/10 04:28:26;;;;;;;9.40;3.40;;;;;;;;;;5000458;28;20204;-68
2023/12/10 04:30:54;;;;;;;10.90;3.57;;;;;;;;;;4999706;28;20200;-68
2023/12/10 04:33:22;;;;;;;8.17;3.30;;;;;;;;;;5000482;28;20212;-69
2023/12/10 04:35:52;;;;;;;5.60;2.87;;;;;;;;;;4999840;28;20854;-68
2023/12/10 04:38:21;;;;;;;7.73;3.00;;;;;;;;;;4993707;28;20198;-68
2023/12/10 04:40:50;;;;;;;5.37;2.53;;;;;;;;;;4999892;28;20232;-68
2023/12/10 04:43:20;;;;;;;3.97;2.60;;;;;;;;;;4999938;28;20567;-68
2023/12/10 04:45:48;;;;;;;7.50;3.30;;;;;;;;;;4999945;28;20235;-67
2023/12/10 04:48:17;;;;;;;5.70;2.77;;;;;;;;;;4990651;28;20248;-67
2023/12/10 04:50:45;;;;;;;9.73;3.17;;;;;;;;;;4998026;28;20660;-67
2023/12/10 04:53:14;;;;;;;7.23;3.20;;;;;;;;;;5000336;28;20367;-66
2023/12/10 04:55:43;;;;;;;5.43;3.20;;;;;;;;;;4999370;28;20288;-66
2023/12/10 04:58:11;;;;;;;6.20;3.33;;;;;;;;;;4997606;28;20727;-67
2023/12/10 05:00:41;;;;;;;5.63;3.17;;;;;;;;;;4998818;28;20255;-66
2023/12/10 05:03:10;;;;;;;8.90;3.47;;;;;;;;;;4997114;28;20760;-69
2023/12/10 05:05:38;;;;;;;9.47;3.67;;;;;;;;;;4999380;28;20229;-69
2023/12/10 05:08:07;;;;;;;6.83;3.50;;;;;;;;;;4999572;28;20228;-69
2023/12/10 05:10:35;;;;;;;7.10;3.80;;;;;;;;;;4999520;28;20209;-68
2023/12/10 05:13:04;;;;;;;6.53;2.63;;;;;;;;;;4999509;28;20205;-68
2023/12/10 05:15:32;;;;;;;8.77;3.20;;;;;;;;;;4998976;28;20236;-68
2023/12/10 05:18:03;;;;;;;10.37;3.33;;;;;;;;;;4999762;28;20397;-68
2023/12/10 05:20:31;;;;;;;9.40;3.60;;;;;;;;;;4997142;28;20205;-70
2023/12/10 05:23:00;;;;;;;9.27;3.17;;;;;;;;;;4998997;28;20201;-69
2023/12/10 05:25:30;;;;;;;7.30;2.80;;;;;;;;;;4995647;28;20735;-69
2023/12/10 05:27:59;;;;;;;10.40;3.10;;;;;;;;;;4999452;28;20247;-69
2023/12/10 05:30:27;;;;;;;6.57;3.10;;;;;;;;;;4998656;28;20205;-69
2023/12/10 05:32:57;;;;;;;6.50;3.40;;;;;;;;;;4999289;28;20243;-69
2023/12/10 05:35:27;;;;;;;6.40;2.90;;;;;;;;;;4999377;28;20229;-69
2023/12/10 05:37:56;;;;;;;7.40;3.70;;;;;;;;;;4999073;28;20235;-69
2023/12/10 05:40:25;;;;;;;10.60;4.33;;;;;;;;;;4998338;28;20232;-69
2023/12/10 05:42:54;;;;;;;6.20;3.17;;;;;;;;;;4998085;28;20233;-69
2023/12/10 05:45:23;;;;;;;7.17;3.50;;;;;;;;;;4998325;28;20275;-68
2023/12/10 05:47:51;;;;;;;6.27;3.20;;;;;;;;;;4994412;28;20239;-69
2023/12/10 05:50:20;;;;;;;5.40;3.50;;;;;;;;;;4996558;28;20232;-68
2023/12/10 05:52:49;;;;;;;7.90;3.53;;;;;;;;;;4997711;28;20216;-69
2023/12/10 05:55:18;;;;;;;10.53;3.60;;;;;;;;;;4997587;28;20304;-68
2023/12/10 05:57:46;;;;;;;11.37;3.60;;;;;;;;;;4997037;28;20205;-69
2023/12/10 06:00:15;;;;;;;6.80;2.87;;;;;;;;;;4997498;28;20205;-69
2023/12/10 06:02:43;;;;;;;9.37;3.63;;;;;;;;;;4998357;28;20209;-68
2023/12/10 06:05:12;;;;;;;6.17;3.57;;;;;;;;;;4986903;28;20327;-69
2023/12/10 06:07:40;;;;;;;10.03;3.60;;;;;;;;;;4998656;28;20263;-69
2023/12/10 06:10:12;;;;;;;9.13;3.50;;;;;;;;;;4997732;28;20228;-69
2023/12/10 06:12:40;;;;;;;6.30;3.30;;;;;;;;;;4998435;28;20660;-69
2023/12/10 06:15:09;;;;;;;7.73;2.83;;;;;;;;;;4998189;28;20247;-69
2023/12/10 06:17:38;;;;;;;4.33;3.27;;;;;;;;;;4998291;28;20310;-68
2023/12/10 06:20:08;;;;;;;8.10;3.80;;;;;;;;;;4998310;28;20655;-69
2023/12/10 06:22:36;;;;;;;8.07;3.13;;;;;;;;;;4998433;28;20232;-68
2023/12/10 06:25:05;;;;;;;3.83;2.80;;;;;;;;;;4998635;28;20308;-68
2023/12/10 06:27:35;;;;;;;6.80;3.83;;;;;;;;;;4997680;28;20586;-67
2023/12/10 06:30:03;;;;;;;7.87;3.63;;;;;;;;;;4997586;28;20579;-69
2023/12/10 06:32:31;;;;;;;7.67;3.60;;;;;;;;;;4998313;28;20284;-70
2023/12/10 06:35:00;;;;;;;6.80;3.50;;;;;;;;;;4994973;28;20236;-68
2023/12/10 06:37:28;;;;;;;7.80;3.70;;;;;;;;;;4998054;28;20247;-68
2023/12/10 06:39:56;;;;;;;7.43;3.77;;;;;;;;;;4997945;28;20235;-68
2023/12/10 06:42:25;;;;;;;5.07;3.83;;;;;;;;;;4998121;28;20616;-67
2023/12/10 06:44:55;;;;;;;6.03;3.90;;;;;;;;;;4986627;28;20280;-68
2023/12/10 06:47:24;;;;;;;10.50;5.07;;;;;;;;;;4996296;28;20323;-69
2023/12/10 06:49:52;;;;;;;6.83;3.87;;;;;;;;;;4992773;28;20209;-69
2023/12/10 06:52:20;;;;;;;8.43;4.07;;;;;;;;;;4996404;28;20204;-69
2023/12/10 06:54:49;;;;;;;6.60;4.30;;;;;;;;;;4996500;28;20264;-69
2023/12/10 06:57:17;;;;;;;9.63;3.70;;;;;;;;;;4995905;28;20275;-70
2023/12/10 06:59:45;;;;;;;9.00;3.60;;;;;;;;;;4996333;28;20555;-70
2023/12/10 07:02:15;;;;;;;6.90;3.40;;;;;;;;;;4991868;28;20264;-70
2023/12/10 07:04:44;;;;;;;13.83;6.07;;;;;;;;;;4996958;28;20252;-70
2023/12/10 07:07:12;;;;;;;11.13;5.80;;;;;;;;;;4998124;28;20219;-69
2023/12/10 07:09:40;;;;;;;11.67;6.33;;;;;;;;;;4997577;28;20232;-69
2023/12/10 07:12:09;;;;;;;9.80;5.50;;;;;;;;;;4997240;28;20201;-68
2023/12/10 07:14:37;;;;;;;13.47;5.87;;;;;;;;;;4996649;28;20223;-68
2023/12/10 07:17:06;;;;;;;8.87;4.47;;;;;;;;;;4997184;28;20216;-68
2023/12/10 07:19:36;;;;;;;7.07;3.87;;;;;;;;;;4997182;28;20193;-68
2023/12/10 07:22:05;;;;;;;6.40;3.93;;;;;;;;;;5000455;28;20208;-69
2023/12/10 07:24:33;;;;;;;11.37;4.93;;;;;;;;;;5001311;28;20734;-68
2023/12/10 07:27:03;;;;;;;9.83;5.20;;;;;;;;;;5001855;28;20205;-69
2023/12/10 07:29:31;;;;;;;11.33;5.13;;;;;;;;;;4998854;28;20255;-68
2023/12/10 07:31:59;;;;;;;6.93;3.73;;;;;;;;;;5000064;28;20289;-69
2023/12/10 07:34:28;;;;;;;8.10;4.47;;;;;;;;;;4999048;28;20260;-69
2023/12/10 07:36:57;;;;;;;9.37;4.70;;;;;;;;;;4995397;28;20233;-69
2023/12/10 07:39:26;;;;;;;15.30;6.53;;;;;;;;;;4998768;28;20204;-67
2023/12/10 07:41:54;;;;;;;12.93;6.33;;;;;;;;;;5001216;28;20213;-68
2023/12/10 07:44:23;;;;;;;9.60;5.03;;;;;;;;;;5001331;28;20225;-67
2023/12/10 07:46:51;;;;;;;10.47;4.10;;;;;;;;;;5001165;28;20280;-68
2023/12/10 07:49:29;;;;;;;9.90;5.70;;;;;;;;;;4995546;28;20233;-69
2023/12/10 07:52:07;;;;;;;10.63;4.90;;;;;;;;;;4997804;28;20205;-69
2023/12/10 07:54:36;;;;;;;10.43;4.80;;;;;;;;;;4999633;28;20651;-68
2023/12/10 07:57:04;;;;;;;10.60;4.13;;;;;;;;;;4998049;28;20212;-68
2023/12/10 07:59:32;;;;;;;6.00;3.03;;;;;;;;;;5000437;28;20635;-67
2023/12/10 08:02:05;;;;;;;8.27;3.57;;;;;;;;;;4994635;28;20324;-67
2023/12/10 08:04:36;;;;;;;9.30;3.67;;;;;;;;;;4995633;28;20217;-68
2023/12/10 08:07:05;;;;;;;7.87;3.63;;;;;;;;;;4999258;28;20212;-66
2023/12/10 08:09:40;;;;;;;8.70;3.67;;;;;;;;;;4998816;28;20240;-66
2023/12/10 08:12:09;;;;;;;9.57;4.37;;;;;;;;;;4991722;28;20203;-67
2023/12/10 08:14:37;;;;;;;10.20;3.37;;;;;;;;;;5006529;28;20308;-67
2023/12/10 08:17:06;;;;;;;8.07;3.80;;;;;;;;;;4999906;28;20247;-66
2023/12/10 08:19:35;;;;;;;10.03;3.37;;;;;;;;;;5000192;28;20228;-67
2023/12/10 08:28:57;;;;;;;10.43;2.53;;;;;;;;;;5003598;28;20263;-67
2023/12/10 08:31:31;;;;;;;9.87;3.30;;;;;;;;;;5001329;28;20207;-66
2023/12/10 08:34:02;;;;;;;16.53;3.20;;;;;;;;;;4999534;28;20336;-67
2023/12/10 08:36:30;;;;;;;16.10;3.37;;;;;;;;;;4997320;28;20244;-67
2023/12/10 08:38:58;;;;;;;13.53;3.40;;;;;;;;;;5000675;28;20201;-68
2023/12/10 08:42:00;;;;;;;8.07;2.90;;;;;;;;;;5000893;28;20256;-68
2023/12/10 08:44:41;;;;;;;7.83;3.03;;;;;;;;;;4995478;28;20246;-68
2023/12/10 08:47:10;;;;;;;7.63;2.90;;;;;;;;;;4999248;28;20268;-67
2023/12/10 08:49:39;;;;;;;12.07;2.80;;;;;;;;;;4992935;28;20279;-67
2023/12/10 08:52:07;;;;;;;8.63;4.77;;;;;;;;;;4987495;28;20201;-67
2023/12/10 08:54:38;;;;;;;8.00;2.83;;;;;;;;;;4997915;28;20213;-66
2023/12/10 08:57:08;;;;;;;9.27;2.87;;;;;;;;;;4996487;28;20215;-67
2023/12/10 08:59:38;;;;;;;11.03;3.13;;;;;;;;;;4998817;28;20303;-67
2023/12/10 09:02:11;;;;;;;10.13;3.10;;;;;;;;;;4994210;28;20219;-67
2023/12/10 09:04:40;;;;;;;8.90;2.70;;;;;;;;;;5001781;28;20311;-67
2023/12/10 09:07:08;;;;;;;8.07;2.80;;;;;;;;;;4999034;28;20201;-68
2023/12/10 09:09:37;;;;;;;11.80;3.70;;;;;;;;;;4998978;28;20225;-68
2023/12/10 09:12:11;;;;;;;8.17;2.90;;;;;;;;;;4998490;28;20201;-67
2023/12/10 09:15:06;;;;;;;6.37;3.27;;;;;;;;;;4986875;28;20232;-67
2023/12/10 09:17:40;;;;;;;7.53;2.83;;;;;;;;;;4999313;28;20197;-70
2023/12/10 09:20:25;;;;;;;8.07;3.00;;;;;;;;;;4998510;28;20205;-68
2023/12/10 09:23:11;;;;;;;7.30;3.00;;;;;;;;;;4995285;28;20259;-67
2023/12/10 09:25:40;;;;;;;7.30;3.00;;;;;;;;;;4999429;28;20224;-68
2023/12/10 09:28:14;;;;;;;8.30;3.43;;;;;;;;;;4998537;28;20240;-69
2023/12/10 09:30:47;;;;;;;8.00;2.87;;;;;;;;;;4998655;28;20217;-67
2023/12/10 09:33:17;;;;;;;12.37;3.80;;;;;;;;;;4998935;28;20201;-67
2023/12/10 09:36:12;;;;;;;7.07;2.63;;;;;;;;;;4997964;28;20261;-68
2023/12/10 09:38:57;;;;;;;9.33;3.33;;;;;;;;;;4979206;28;20551;-69
2023/12/10 09:41:36;;;;;;;9.83;3.50;;;;;;;;;;4991158;28;20287;-70
2023/12/10 09:44:05;;;;;;;13.60;4.60;;;;;;;;;;4998092;28;20736;-68
2023/12/10 09:46:34;;;;;;;7.63;3.70;;;;;;;;;;4998968;28;20205;-70
2023/12/10 09:49:04;;;;;;;9.17;3.23;;;;;;;;;;4997569;28;20236;-71
2023/12/10 09:51:52;;;;;;;11.50;4.00;;;;;;;;;;4996557;28;20201;-65
2023/12/10 09:54:37;;;;;;;8.53;3.90;;;;;;;;;;4994140;28;20374;-65
2023/12/10 09:57:11;;;;;;;7.27;3.63;;;;;;;;;;4990709;28;20228;-62
2023/12/10 09:59:40;;;;;;;8.80;3.47;;;;;;;;;;4997569;28;20675;-62
2023/12/10 10:02:10;;;;;;;10.57;3.77;;;;;;;;;;4998613;28;20208;-65
2023/12/10 10:04:41;;;;;;;6.07;3.70;;;;;;;;;;4997188;28;20247;-62
2023/12/10 10:07:22;;;;;;;7.10;3.30;;;;;;;;;;4998075;28;20610;-64
2023/12/10 10:09:52;;;;;;;11.30;3.87;;;;;;;;;;4997053;28;20232;-63
2023/12/10 10:12:22;;;;;;;8.63;3.43;;;;;;;;;;4998325;28;20224;-63
2023/12/10 10:14:56;;;;;;;8.70;3.80;;;;;;;;;;4995909;28;20268;-64
2023/12/10 10:17:38;;;;;;;11.47;3.67;;;;;;;;;;4996028;28;20223;-63
2023/12/10 10:20:42;;;;;;;7.03;2.73;;;;;;;;;;4992019;28;20223;-62
2023/12/10 10:23:13;;;;;;;7.23;2.37;;;;;;;;;;4997989;28;20209;-72
2023/12/10 10:25:42;;;;;;;9.43;3.57;;;;;;;;;;4998248;28;20312;-73
2023/12/10 10:28:10;;;;;;;7.73;3.07;;;;;;;;;;4984296;28;20239;-66
2023/12/10 10:30:40;;;;;;;8.70;3.13;;;;;;;;;;4995154;28;20231;-73
2023/12/10 10:33:10;;;;;;;6.70;2.93;;;;;;;;;;4997901;28;20734;-65
2023/12/10 10:35:39;;;;;;;13.67;2.80;;;;;;;;;;4995996;28;20359;-65
2023/12/10 10:38:07;;;;;;;10.17;3.07;;;;;;;;;;4994601;28;20236;-67
2023/12/10 10:40:39;;;;;;;14.07;3.13;;;;;;;;;;4994600;28;20259;-66
2023/12/10 10:43:09;;;;;;;9.37;3.23;;;;;;;;;;4994257;28;20668;-66
2023/12/10 10:45:38;;;;;;;8.90;2.70;;;;;;;;;;4996967;28;20580;-66
2023/12/10 10:48:07;;;;;;;7.33;2.70;;;;;;;;;;4997001;28;20245;-66
2023/12/10 10:50:38;;;;;;;8.20;3.40;;;;;;;;;;4994362;28;20220;-66
2023/12/10 10:53:07;;;;;;;6.97;3.40;;;;;;;;;;4991530;28;20212;-66
2023/12/10 10:55:36;;;;;;;8.27;2.93;;;;;;;;;;4996832;28;20235;-66
2023/12/10 10:58:28;;;;;;;8.93;3.23;;;;;;;;;;4987275;28;20215;-66
2023/12/10 11:01:01;;;;;;;5.53;2.97;;;;;;;;;;4995511;28;20205;-66
2023/12/10 11:03:31;;;;;;;9.80;2.73;;;;;;;;;;4994416;28;20205;-68
2023/12/10 11:06:03;;;;;;;6.57;2.73;;;;;;;;;;4994744;28;20231;-70
2023/12/10 11:08:35;;;;;;;6.77;2.70;;;;;;;;;;4993634;28;20204;-69
2023/12/10 11:11:05;;;;;;;8.23;2.30;;;;;;;;;;4992682;28;20308;-65
2023/12/10 11:13:45;;;;;;;8.67;2.73;;;;;;;;;;4994853;28;20197;-66
2023/12/10 11:16:14;;;;;;;13.00;2.93;;;;;;;;;;4995217;28;20680;-67
2023/12/10 11:18:55;;;;;;;7.07;3.07;;;;;;;;;;4996607;28;20200;-68
2023/12/10 11:21:29;;;;;;;8.00;3.17;;;;;;;;;;4997789;28;20196;-66
2023/12/10 11:27:17;;;;;;;7.27;2.40;;;;;;;;;;4980628;28;20209;-67
2023/12/10 11:29:54;;;;;;;4.43;2.10;;;;;;;;;;4981080;28;20206;-67
2023/12/10 11:32:28;;;;;;;9.37;2.57;;;;;;;;;;4993384;28;20212;-66
2023/12/10 11:34:58;;;;;;;7.93;2.30;;;;;;;;;;4997804;28;20636;-68
2023/12/10 11:37:26;;;;;;;6.80;2.00;;;;;;;;;;4996623;28;20786;-66
2023/12/10 11:39:55;;;;;;;8.50;2.57;;;;;;;;;;4997575;28;20209;-68
2023/12/10 11:42:23;;;;;;;9.27;2.20;;;;;;;;;;4996471;28;20212;-71
2023/12/10 11:44:53;;;;;;;10.80;2.37;;;;;;;;;;5004296;28;20223;-71
2023/12/10 11:47:21;;;;;;;5.73;2.07;;;;;;;;;;4990933;28;20212;-68
2023/12/10 11:49:50;;;;;;;8.67;2.10;;;;;;;;;;4996026;28;20204;-69
2023/12/10 11:52:18;;;;;;;9.70;2.10;;;;;;;;;;4996616;28;20212;-71
2023/12/10 11:54:47;;;;;;;9.60;2.40;;;;;;;;;;4993218;28;20707;-71
2023/12/10 11:57:15;;;;;;;5.73;2.10;;;;;;;;;;4995170;28;20208;-68
2023/12/10 11:59:46;;;;;;;8.47;2.40;;;;;;;;;;4988991;28;20199;-76
2023/12/10 12:02:17;;;;;;;5.27;2.00;;;;;;;;;;4992118;28;20686;-76
2023/12/10 12:04:45;;;;;;;7.13;2.23;;;;;;;;;;4993790;28;20216;-79
2023/12/10 12:07:23;;;;;;;10.73;1.63;;;;;;;;;;4992619;28;20209;-77
2023/12/10 12:09:53;;;;;;;7.37;2.00;;;;;;;;;;4997253;28;20205;-67
2023/12/10 12:15:50;;;;;;;6.70;2.23;;;;;;;;;;4999663;28;20224;-69
2023/12/10 12:18:26;;;;;;;6.00;2.33;;;;;;;;;;4999901;28;20204;-68
2023/12/10 12:20:56;;;;;;;37.77;19.67;;;;;;;;;;4999381;28;20210;-66
2023/12/10 12:23:24;;;;;;;26.47;16.40;;;;;;;;;;5000466;28;20634;-65
2023/12/10 12:25:52;;;;;;;15.70;3.03;;;;;;;;;;5000099;28;20288;-66
2023/12/10 12:31:38;;;;;;;7.13;2.07;;;;;;;;;;4944046;28;20714;-64
2023/12/10 12:34:28;;;;;;;7.53;2.13;;;;;;;;;;4991964;28;20236;-67
2023/12/10 12:44:18;;;;;;;;;;;;;;;;;;;;;
2023/12/10 12:46:50;;;;;;;5.93;1.63;;;;;;;;;;4988454;28;20620;-75
2023/12/10 12:49:20;;;;;;;9.73;2.20;;;;;;;;;;4999859;28;20264;-71
2023/12/10 12:51:50;;;;;;;8.93;2.47;;;;;;;;;;4999734;28;20221;-76
2023/12/10 12:54:19;;;;;;;8.37;2.20;;;;;;;;;;4996533;28;20218;-75
2023/12/10 12:56:48;;;;;;;6.13;2.17;;;;;;;;;;4991241;28;20289;-75
2023/12/10 12:59:17;;;;;;;9.90;2.07;;;;;;;;;;4997123;28;20209;-76
2023/12/10 13:01:45;;;;;;;7.23;2.03;;;;;;;;;;4999251;28;20283;-74
2023/12/10 13:04:17;;;;;;;12.10;2.33;;;;;;;;;;5000341;28;20268;-75
2023/12/10 13:06:46;;;;;;;10.03;2.30;;;;;;;;;;4997059;28;20275;-77
2023/12/10 13:09:17;;;;;;;6.00;1.60;;;;;;;;;;4999084;28;20679;-75
2023/12/10 13:11:45;;;;;;;7.87;1.83;;;;;;;;;;4999293;28;20247;-76
2023/12/10 13:14:14;;;;;;;6.83;1.60;;;;;;;;;;4994275;28;20292;-74
2023/12/10 13:16:58;;;;;;;6.80;2.47;;;;;;;;;;4991309;28;20229;-72
2023/12/10 13:19:34;;;;;;;7.60;1.90;;;;;;;;;;4998614;28;20205;-76
2023/12/10 13:22:03;;;;;;;6.40;1.87;;;;;;;;;;4997353;28;20716;-78
2023/12/10 13:24:33;;;;;;;8.17;2.97;;;;;;;;;;4998977;28;20283;-78
2023/12/10 13:27:02;;;;;;;9.33;2.40;;;;;;;;;;4998926;28;20205;-78
2023/12/10 13:29:30;;;;;;;7.40;1.93;;;;;;;;;;4999074;28;20241;-78
2023/12/10 13:31:58;;;;;;;9.50;2.00;;;;;;;;;;4999041;28;20225;-78
2023/12/10 13:34:27;;;;;;;6.30;2.17;;;;;;;;;;4998240;28;20587;-78
2023/12/10 13:36:56;;;;;;;7.47;2.03;;;;;;;;;;4999281;28;20239;-78
2023/12/10 13:39:24;;;;;;;6.73;1.97;;;;;;;;;;4999041;28;20216;-75
2023/12/10 13:41:54;;;;;;;5.90;1.93;;;;;;;;;;4999072;28;20212;-78
2023/12/10 13:44:23;;;;;;;7.67;2.23;;;;;;;;;;4998969;28;20329;-79
2023/12/10 13:46:52;;;;;;;5.77;2.17;;;;;;;;;;4999213;28;20213;-76
2023/12/10 13:49:20;;;;;;;7.63;1.90;;;;;;;;;;4998875;28;20762;-76
2023/12/10 13:51:49;;;;;;;4.70;2.13;;;;;;;;;;4993172;28;20229;-79
2023/12/10 13:54:17;;;;;;;8.73;2.27;;;;;;;;;;4996012;28;20248;-77
2023/12/10 13:56:47;;;;;;;5.00;1.83;;;;;;;;;;4996262;28;20720;-76
2023/12/10 13:59:19;;;;;;;6.73;2.03;;;;;;;;;;4998570;28;20197;-76
2023/12/10 14:01:47;;;;;;;5.20;2.23;;;;;;;;;;4998615;28;20671;-76
2023/12/10 14:04:16;;;;;;;7.50;2.13;;;;;;;;;;4998845;28;20216;-77
2023/12/10 14:06:44;;;;;;;3.83;1.83;;;;;;;;;;4998263;28;20232;-76
2023/12/10 14:09:14;;;;;;;10.50;2.23;;;;;;;;;;4991815;28;20209;-76
2023/12/10 14:12:00;;;;;;;6.10;2.17;;;;;;;;;;4984396;28;20235;-76
2023/12/10 14:14:30;;;;;;;9.93;2.30;;;;;;;;;;4990542;28;20308;-76
2023/12/10 14:17:07;;;;;;;8.33;2.70;;;;;;;;;;4989535;28;20295;-76
2023/12/10 14:19:49;;;;;;;6.77;2.30;;;;;;;;;;4988097;28;20298;-76
2023/12/10 14:22:18;;;;;;;5.00;2.00;;;;;;;;;;4998836;28;20255;-76
2023/12/10 14:24:46;;;;;;;11.13;2.50;;;;;;;;;;4998466;28;20707;-77
2023/12/10 14:27:14;;;;;;;6.97;2.50;;;;;;;;;;4998114;28;20213;-76
2023/12/10 14:29:44;;;;;;;7.03;2.67;;;;;;;;;;4998116;28;20208;-76
2023/12/10 14:32:13;;;;;;;7.07;2.17;;;;;;;;;;4997196;28;20284;-76
2023/12/10 14:34:43;;;;;;;10.33;2.03;;;;;;;;;;4990025;28;20217;-76
2023/12/10 14:37:11;;;;;;;5.07;2.00;;;;;;;;;;4992285;28;20630;-75
2023/12/10 14:39:39;;;;;;;6.87;2.00;;;;;;;;;;4998075;28;20213;-76
2023/12/10 14:42:08;;;;;;;7.27;2.43;;;;;;;;;;4998060;28;20201;-78
2023/12/10 14:44:36;;;;;;;6.43;2.50;;;;;;;;;;4997944;28;20227;-78
2023/12/10 14:47:06;;;;;;;10.80;2.57;;;;;;;;;;4998272;28;20280;-77
2023/12/10 14:49:34;;;;;;;8.00;2.77;;;;;;;;;;4979154;28;20208;-78
2023/12/10 14:52:03;;;;;;;12.00;2.53;;;;;;;;;;4980070;28;20221;-78
2023/12/10 14:54:32;;;;;;;8.77;2.47;;;;;;;;;;4976537;28;20224;-79
2023/12/10 14:57:01;;;;;;;10.80;2.47;;;;;;;;;;4982205;28;20208;-78
2023/12/10 14:59:29;;;;;;;7.73;2.60;;;;;;;;;;4978939;28;20229;-78
2023/12/10 15:01:57;;;;;;;11.00;3.00;;;;;;;;;;4979091;28;20280;-78
2023/12/10 15:04:39;;;;;;;10.83;2.50;;;;;;;;;;4968803;28;20307;-78
2023/12/10 15:07:09;;;;;;;8.53;2.53;;;;;;;;;;4977990;28;20256;-78
2023/12/10 15:09:38;;;;;;;8.43;2.73;;;;;;;;;;4978608;28;20206;-78
2023/12/10 15:12:10;;;;;;;7.27;1.70;;;;;;;;;;4973668;28;20234;-79
2023/12/10 15:14:40;;;;;;;8.70;2.67;;;;;;;;;;4972450;28;20268;-78
2023/12/10 15:17:11;;;;;;;9.27;2.23;;;;;;;;;;4977895;28;20202;-78
2023/12/10 15:19:43;;;;;;;9.03;2.57;;;;;;;;;;4978149;28;20228;-78
2023/12/10 15:22:12;;;;;;;6.03;2.60;;;;;;;;;;4978625;28;20193;-77
2023/12/10 15:24:41;;;;;;;7.87;2.10;;;;;;;;;;4978546;28;20227;-78
2023/12/10 15:27:09;;;;;;;8.30;3.17;;;;;;;;;;4969294;28;20550;-77